Time;durP1;ratioP1;P1;durP2;ratioP2;P2;SDS_P1;SDS_P2;PMS_P1;PMS_P2;Temp;Humidity;BMP_temperature;BMP_pressure;BME280_temperature;BME280_humidity;BME280_pressure;Samples;Min_cycle;Max_cycle;Signal;HPM_P1;HPM_P2
2020/12/04 00:00:55;;;;;;;;;66.40;51.00;;;;;8.00;45.18;97704.22;6161027;28;97198;-60
2020/12/04 00:03:57;;;;;;;;;67.00;51.00;;;;;8.00;45.18;97698.84;6161343;28;98148;-60
2020/12/04 00:06:59;;;;;;;;;66.75;53.00;;;;;8.04;45.37;97716.91;6161756;28;97346;-60
2020/12/04 00:10:01;;;;;;;;;67.25;53.00;;;;;8.09;45.51;97710.84;6160657;28;96832;-60
2020/12/04 00:13:02;;;;;;;;;70.00;53.67;;;;;8.12;45.44;97731.84;6161821;28;97524;-60
2020/12/04 00:16:04;;;;;;;;;70.33;53.33;;;;;7.95;45.58;97691.50;6161572;28;98014;-59
2020/12/04 00:19:05;;;;;;;;;68.00;50.20;;;;;8.18;45.49;97714.81;6159048;28;97784;-60
2020/12/04 00:22:07;;;;;;;;;70.00;52.75;;;;;8.24;45.38;97712.00;6160875;28;96545;-60
2020/12/04 00:25:08;;;;;;;;;69.60;53.80;;;;;8.18;45.07;97718.31;6161326;28;96975;-60
2020/12/04 00:28:10;;;;;;;;;64.00;51.00;;;;;8.15;44.76;97712.59;6161059;28;97235;-60
2020/12/04 00:31:11;;;;;;;;;68.00;52.40;;;;;7.97;44.93;97700.09;6158351;28;97179;-60
2020/12/04 00:34:12;;;;;;;;;66.20;52.00;;;;;7.89;44.94;97695.09;6137161;28;97421;-60
2020/12/04 00:37:14;;;;;;;;;68.40;52.60;;;;;7.82;44.92;97691.69;6137080;28;97724;-60
2020/12/04 00:40:16;;;;;;;;;67.60;51.80;;;;;7.80;44.93;97675.84;6154817;28;97276;-60
2020/12/04 00:43:17;;;;;;;;;67.00;52.00;;;;;7.79;45.48;97674.22;6160997;28;97165;-60
2020/12/04 00:46:19;;;;;;;;;65.60;50.80;;;;;7.86;45.90;97670.63;6145538;28;96972;-60
2020/12/04 00:49:20;;;;;;;;;65.40;50.40;;;;;7.94;46.02;97664.88;6144573;28;97017;-60
2020/12/04 00:52:22;;;;;;;;;65.40;51.00;;;;;7.99;45.74;97655.06;6158955;28;97121;-60
2020/12/04 00:55:24;;;;;;;;;67.00;51.50;;;;;7.84;46.42;97647.50;6159425;28;97208;-60
2020/12/04 00:58:26;;;;;;;;;66.00;51.20;;;;;8.06;46.19;97647.69;6160359;28;96591;-60
2020/12/04 01:01:28;;;;;;;;;68.00;52.00;;;;;8.18;46.02;97637.78;6158882;28;97372;-60
2020/12/04 01:04:29;;;;;;;;;67.80;52.00;;;;;8.21;45.69;97644.53;6160220;28;96863;-60
2020/12/04 01:07:31;;;;;;;;;68.00;52.00;;;;;8.16;45.51;97644.44;6160535;28;97560;-60
2020/12/04 01:10:32;;;;;;;;;67.00;51.40;;;;;8.14;45.48;97659.97;6160118;28;97085;-60
2020/12/04 01:13:34;;;;;;;;;67.20;51.40;;;;;8.02;45.52;97653.78;6152386;28;97158;-60
2020/12/04 01:16:35;;;;;;;;;70.00;53.60;;;;;8.03;45.77;97650.03;6135188;28;97482;-60
2020/12/04 01:19:36;;;;;;;;;71.00;55.40;;;;;7.84;45.67;97628.72;6135551;28;97151;-60
2020/12/04 01:22:38;;;;;;;;;69.00;54.00;;;;;7.92;45.96;97646.31;6136197;28;97252;-60
2020/12/04 01:25:39;;;;;;;;;71.20;55.80;;;;;7.90;45.77;97626.97;6134390;28;97635;-60
2020/12/04 01:28:41;;;;;;;;;70.40;55.00;;;;;7.86;45.63;97620.44;6136276;28;97175;-60
2020/12/04 01:31:48;;;;;;;;;69.80;53.80;;;;;7.67;45.88;97600.97;6144236;28;97251;-60
2020/12/04 01:34:49;;;;;;;;;69.60;52.00;;;;;7.84;45.69;97631.41;6159799;28;98649;-60
2020/12/04 01:37:51;;;;;;;;;70.00;53.60;;;;;7.94;46.02;97611.22;6159446;28;96739;-60
2020/12/04 01:40:58;;;;;;;;;72.20;56.20;;;;;7.91;46.12;97609.81;6138161;28;98386;-60
2020/12/04 01:44:00;;;;;;;;;71.00;54.50;;;;;7.77;46.09;97611.91;6150786;28;98182;-60
2020/12/04 01:47:01;;;;;;;;;71.00;57.00;;;;;7.84;46.05;97611.81;6135859;28;96936;-60
2020/12/04 01:50:03;;;;;;;;;72.40;57.00;;;;;7.85;46.12;97616.13;6135978;28;97514;-60
2020/12/04 01:53:06;;;;;;;;;69.40;54.20;;;;;7.92;46.10;97629.41;6135196;28;98767;-60
2020/12/04 01:56:08;;;;;;;;;70.75;53.50;;;;;7.68;46.18;97577.63;6135757;28;98594;-60
2020/12/04 01:59:09;;;;;;;;;69.00;53.00;;;;;7.89;46.17;97598.50;6135788;28;98652;-60
2020/12/04 02:02:19;;;;;;;;;67.60;51.00;;;;;7.88;45.92;97590.69;6135746;28;97139;-60
2020/12/04 02:05:21;;;;;;;;;67.00;52.00;;;;;7.84;45.94;97598.41;6135789;28;98630;-60
2020/12/04 02:08:37;;;;;;;;;68.00;53.00;;;;;7.87;46.04;97600.59;6150939;28;97624;-60
2020/12/04 02:11:41;;;;;;;;;67.67;52.00;;;;;7.88;45.82;97588.81;6159042;28;97333;-60
2020/12/04 02:14:44;;;;;;;;;66.60;51.60;;;;;7.82;45.91;97574.47;6159757;28;96876;-60
2020/12/04 02:17:46;;;;;;;;;68.40;52.00;;;;;7.79;45.84;97583.00;6159017;28;97338;-60
2020/12/04 02:20:58;;;;;;;;;72.00;54.25;;;;;7.73;45.64;97575.06;6155905;28;96653;-60
2020/12/04 02:24:00;;;;;;;;;70.00;53.80;;;;;7.68;45.52;97574.97;6159870;28;97452;-60
2020/12/04 02:27:02;;;;;;;;;70.00;52.80;;;;;7.67;45.64;97579.50;6151765;28;99126;-60
2020/12/04 02:30:04;;;;;;;;;66.00;51.75;;;;;7.55;45.29;97568.00;6145318;28;98419;-60
2020/12/04 02:33:05;;;;;;;;;71.80;53.40;;;;;7.60;45.25;97569.97;6139799;28;98659;-60
2020/12/04 02:36:07;;;;;;;;;67.75;53.75;;;;;7.54;45.50;97563.66;6139211;28;97154;-60
2020/12/04 02:39:08;;;;;;;;;69.60;55.00;;;;;7.51;45.67;97560.66;6139238;28;97401;-60
2020/12/04 02:42:10;;;;;;;;;66.20;52.00;;;;;7.51;45.97;97552.59;6139341;28;96868;-60
2020/12/04 02:45:12;;;;;;;;;68.00;52.00;;;;;7.46;45.96;97539.09;6139551;28;97055;-60
2020/12/04 02:48:14;;;;;;;;;68.20;53.00;;;;;7.47;45.92;97540.72;6139746;28;97227;-60
2020/12/04 02:51:16;;;;;;;;;67.50;52.00;;;;;7.55;45.83;97527.75;6150442;28;97622;-60
2020/12/04 02:54:17;;;;;;;;;62.50;49.00;;;;;7.50;46.94;97538.38;6161442;28;96677;-60
2020/12/04 02:57:19;;;;;;;;;63.00;49.40;;;;;7.43;47.15;97528.84;6156579;28;97453;-60
2020/12/04 03:00:20;;;;;;;;;69.00;52.00;;;;;7.52;46.87;97530.09;6138890;28;97517;-60
2020/12/04 03:03:22;;;;;;;;;65.40;51.00;;;;;7.45;47.06;97540.94;6139229;28;97504;-60
2020/12/04 03:06:23;;;;;;;;;67.00;50.80;;;;;7.60;46.52;97524.38;6159420;28;96583;-60
2020/12/04 03:09:24;;;;;;;;;62.00;49.60;;;;;7.63;46.51;97523.88;6162625;28;96660;-60
2020/12/04 03:12:26;;;;;;;;;63.60;50.00;;;;;7.65;46.76;97527.16;6162901;28;97440;-60
2020/12/04 03:15:27;;;;;;;;;64.80;50.00;;;;;7.52;47.18;97516.69;6153601;28;97441;-60
2020/12/04 03:18:28;;;;;;;;;67.00;52.00;;;;;7.67;46.92;97525.06;6138781;28;97203;-60
2020/12/04 03:21:30;;;;;;;;;66.60;51.00;;;;;7.67;46.90;97531.22;6138840;28;96687;-60
2020/12/04 03:24:35;;;;;;;;;68.00;52.00;;;;;7.68;46.86;97524.81;6138573;28;97031;-60
2020/12/04 03:27:36;;;;;;;;;69.50;53.00;;;;;7.72;46.64;97528.66;6163034;28;97936;-60
2020/12/04 03:30:37;;;;;;;;;67.75;52.00;;;;;7.73;46.66;97510.69;6163029;28;97424;-60
2020/12/04 03:33:39;;;;;;;;;69.67;52.67;;;;;7.76;46.81;97508.38;6162525;28;96635;-60
2020/12/04 03:36:41;;;;;;;;;68.00;53.00;;;;;7.77;46.71;97503.81;6162369;28;96469;-60
2020/12/04 03:39:42;;;;;;;;;67.00;51.20;;;;;7.80;46.75;97508.69;6146219;28;97407;-60
2020/12/04 03:42:44;;;;;;;;;68.60;52.00;;;;;7.84;46.60;97517.91;6161695;28;97441;-60
2020/12/04 03:45:45;;;;;;;;;71.40;52.20;;;;;7.87;46.95;97508.59;6162499;28;97433;-59
2020/12/04 03:48:47;;;;;;;;;68.20;53.00;;;;;7.89;46.79;97507.28;6161864;28;97584;-60
2020/12/04 03:51:48;;;;;;;;;69.00;51.40;;;;;7.96;46.75;97516.03;6145533;28;97419;-60
2020/12/04 03:54:50;;;;;;;;;69.50;52.00;;;;;7.47;46.27;97428.09;6155333;28;98507;-60
2020/12/04 03:57:51;;;;;;;;;67.20;52.00;;;;;7.97;46.59;97498.84;6161937;28;97097;-60
2020/12/04 04:00:54;;;;;;;;;68.25;52.00;;;;;7.96;46.46;97497.22;6162130;28;97506;-60
2020/12/04 04:03:55;;;;;;;;;67.00;53.00;;;;;7.97;46.21;97495.34;6162059;28;97169;-60
2020/12/04 04:06:56;;;;;;;;;69.00;52.00;;;;;7.97;46.29;97506.06;6161497;28;97552;-60
2020/12/04 04:09:58;;;;;;;;;65.00;50.75;;;;;7.95;46.57;97505.50;6160869;28;98105;-60
2020/12/04 04:12:59;;;;;;;;;65.80;51.00;;;;;7.99;46.67;97501.28;6161725;28;97227;-60
2020/12/04 04:16:01;;;;;;;;;69.00;52.40;;;;;8.04;46.13;97504.06;6161561;28;98131;-60
2020/12/04 04:19:02;;;;;;;;;69.40;53.00;;;;;7.96;45.92;97525.94;6160399;28;96595;-60
2020/12/04 04:22:03;;;;;;;;;66.50;52.25;;;;;7.97;46.16;97512.25;6150477;28;96795;-60
2020/12/04 04:25:05;;;;;;;;;68.20;52.00;;;;;7.93;46.23;97526.38;6137894;28;97136;-60
2020/12/04 04:28:11;;;;;;;;;67.00;52.40;;;;;7.56;46.11;97453.50;6137433;28;97290;-60
2020/12/04 04:31:13;;;;;;;;;68.20;51.00;;;;;7.50;46.28;97486.63;6137734;28;96973;-60
2020/12/04 04:34:14;;;;;;;;;66.75;52.00;;;;;7.72;46.21;97483.03;6137274;28;96786;-60
2020/12/04 04:37:16;;;;;;;;;66.00;51.00;;;;;7.64;45.97;97490.66;6137261;28;97848;-60
2020/12/04 04:40:17;;;;;;;;;65.60;51.60;;;;;7.63;45.92;97494.38;6137834;28;98132;-59
2020/12/04 04:43:18;;;;;;;;;67.00;52.00;;;;;7.57;45.84;97498.03;6137225;28;97394;-59
2020/12/04 04:46:37;;;;;;;;;68.40;52.00;;;;;7.17;45.71;97436.31;6137362;28;98068;-59
2020/12/04 04:49:46;;;;;;;;;65.50;50.75;;;;;7.48;46.05;97496.78;6143521;28;98558;-60
2020/12/04 04:52:47;;;;;;;;;62.50;50.00;;;;;7.43;46.15;97505.50;6160153;28;97552;-60
2020/12/04 04:55:49;;;;;;;;;61.00;48.00;;;;;7.52;46.78;97490.69;6160830;28;96549;-60
2020/12/04 04:58:51;;;;;;;;;60.67;47.33;;;;;7.56;46.66;97502.59;6161513;28;96831;-60
2020/12/04 05:01:52;;;;;;;;;66.60;50.80;;;;;7.56;46.24;97504.44;6158439;28;97300;-60
2020/12/04 05:04:56;;;;;;;;;65.00;51.00;;;;;7.32;46.07;97466.13;6158881;28;97451;-60
2020/12/04 05:08:15;;;;;;;;;68.80;51.00;;;;;7.44;46.01;97488.38;6160355;28;97231;-60
2020/12/04 05:11:16;;;;;;;;;64.00;50.00;;;;;7.40;45.95;97506.78;6147991;28;97236;-60
2020/12/04 05:14:22;;;;;;;;;67.25;51.00;;;;;7.40;46.16;97497.94;6140510;28;97139;-60
2020/12/04 05:17:24;;;;;;;;;64.00;50.40;;;;;7.28;46.50;97487.22;6156371;28;97707;-60
2020/12/04 05:20:26;;;;;;;;;66.50;50.25;;;;;7.42;46.29;97509.25;6160304;28;96414;-60
2020/12/04 05:23:28;;;;;;;;;65.80;50.00;;;;;7.39;46.41;97490.94;6160376;28;97765;-60
2020/12/04 05:26:34;;;;;;;;;63.60;50.00;;;;;7.37;46.11;97506.47;6156400;28;97626;-60
2020/12/04 05:29:37;;;;;;;;;66.00;51.60;;;;;7.32;46.02;97517.06;6175643;28;97413;-60
2020/12/04 05:32:39;;;;;;;;;67.80;52.40;;;;;7.26;45.97;97509.94;6160599;28;97220;-60
2020/12/04 05:35:40;;;;;;;;;66.00;51.00;;;;;7.24;46.05;97512.84;6148254;28;97609;-60
2020/12/04 05:38:53;;;;;;;;;66.00;50.00;;;;;7.17;46.35;97503.31;6148495;28;98424;-60
2020/12/04 05:41:54;;;;;;;;;67.00;51.00;;;;;7.23;45.80;97497.03;6159091;28;97627;-60
2020/12/04 05:44:55;;;;;;;;;65.60;51.60;;;;;6.94;45.89;97462.06;6157145;28;98337;-60
2020/12/04 05:47:57;;;;;;;;;62.20;49.80;;;;;7.17;46.33;97457.75;6159906;28;96584;-60
2020/12/04 05:50:58;;;;;;;;;57.00;46.00;;;;;7.32;46.95;97491.06;6159921;28;97554;-60
2020/12/04 05:54:01;;;;;;;;;62.40;49.00;;;;;7.36;46.49;97502.13;6143622;28;97323;-60
2020/12/04 05:57:07;;;;;;;;;60.75;47.25;;;;;7.42;46.93;97486.97;6136028;28;97126;-60
2020/12/04 06:00:10;;;;;;;;;60.40;46.40;;;;;7.34;46.84;97482.78;6145445;28;97726;-59
2020/12/04 06:03:13;;;;;;;;;57.00;46.00;;;;;7.57;47.33;97496.19;6141443;28;96895;-60
2020/12/04 06:06:26;;;;;;;;;51.50;42.50;;;;;7.63;47.16;97483.66;6154898;28;96670;-59
2020/12/04 06:09:27;;;;;;;;;52.00;42.60;;;;;7.67;48.04;97501.72;6140015;28;97121;-60
2020/12/04 06:12:29;;;;;;;;;56.00;43.50;;;;;7.77;47.83;97496.56;6136093;28;97395;-60
2020/12/04 06:15:32;;;;;;;;;52.00;42.00;;;;;7.85;48.10;97500.75;6135848;28;97493;-60
2020/12/04 06:18:33;;;;;;;;;55.00;42.25;;;;;7.97;47.39;97498.03;6134247;28;96856;-59
2020/12/04 06:21:47;;;;;;;;;50.50;40.50;;;;;8.10;48.13;97513.88;6136683;28;97475;-60
2020/12/04 06:24:55;;;;;;;;;50.00;41.00;;;;;8.19;47.11;97509.75;6157783;28;96848;-60
2020/12/04 06:27:56;;;;;;;;;56.00;43.60;;;;;8.24;46.68;97524.06;6159785;28;97114;-59
2020/12/04 06:31:06;;;;;;;;;52.25;41.75;;;;;8.30;46.76;97489.31;6158840;28;97100;-60
2020/12/04 06:34:21;;;;;;;;;51.75;42.50;;;;;8.24;46.53;97536.69;6159520;28;96544;-60
2020/12/04 06:37:35;;;;;;;;;53.00;42.00;;;;;8.19;47.17;97526.66;6150519;28;96947;-59
2020/12/04 06:40:37;;;;;;;;;51.20;41.60;;;;;8.28;46.79;97524.41;6153408;28;96880;-60
2020/12/04 06:43:38;;;;;;;;;52.00;41.60;;;;;8.18;46.54;97495.50;6154051;28;98549;-59
2020/12/04 06:46:46;;;;;;;;;52.00;43.00;;;;;8.45;46.42;97532.53;6145472;28;98345;-60
2020/12/04 06:49:47;;;;;;;;;50.00;40.60;;;;;8.53;46.29;97530.28;6148705;28;98478;-60
2020/12/04 06:53:05;;;;;;;;;50.00;41.00;;;;;8.58;45.79;97534.91;6157672;28;97369;-59
2020/12/04 06:56:07;;;;;;;;;59.00;46.25;;;;;8.52;44.24;97539.38;6139550;28;97875;-60
2020/12/04 06:59:09;;;;;;;;;61.00;48.00;;;;;8.52;44.22;97528.63;6155345;28;97935;-59
2020/12/04 07:02:14;;;;;;;;;67.00;50.60;;;;;8.59;43.98;97548.13;6146622;28;98516;-59
2020/12/04 07:05:22;;;;;;;;;67.60;52.20;;;;;8.50;43.54;97543.38;6134816;28;98448;-59
2020/12/04 07:08:23;;;;;;;;;68.67;53.00;;;;;8.69;43.66;97558.22;6156455;28;96759;-60
2020/12/04 07:11:25;;;;;;;;;68.00;53.00;;;;;8.84;43.39;97568.44;6171995;28;97416;-59
2020/12/04 07:14:27;;;;;;;;;70.00;53.00;;;;;8.96;43.53;97598.72;6155087;28;97110;-60
2020/12/04 07:17:30;;;;;;;;;64.50;49.75;;;;;9.47;43.27;97552.78;6149274;28;96770;-60
2020/12/04 07:20:36;;;;;;;;;62.60;49.00;;;;;10.25;41.82;97538.22;6162209;28;97509;-60
2020/12/04 07:23:37;;;;;;;;;64.60;50.00;;;;;11.26;40.08;97570.69;6162509;28;98553;-60
2020/12/04 07:26:44;;;;;;;;;68.60;53.00;;;;;11.86;38.83;97585.72;6156465;28;96750;-60
2020/12/04 07:29:45;;;;;;;;;71.00;56.00;;;;;12.23;37.49;97578.34;6159934;28;96640;-60
2020/12/04 07:32:53;;;;;;;;;74.00;59.40;;;;;12.66;36.33;97568.22;6162030;28;97583;-60
2020/12/04 07:36:04;;;;;;;;;71.60;56.60;;;;;13.20;35.57;97576.69;6154917;28;97389;-60
2020/12/04 07:39:06;;;;;;;;;67.25;52.50;;;;;13.58;34.96;97575.34;6140098;28;97688;-60
2020/12/04 07:42:10;;;;;;;;;70.40;55.00;;;;;13.82;34.51;97595.34;6158981;28;98539;-60
2020/12/04 07:45:15;;;;;;;;;71.40;54.40;;;;;14.10;34.01;97583.06;6161344;28;97408;-60
2020/12/04 07:48:18;;;;;;;;;68.50;53.00;;;;;14.78;33.29;97589.59;6160088;28;97461;-59
2020/12/04 07:51:20;;;;;;;;;72.00;55.00;;;;;15.02;32.92;97584.28;6161219;28;99144;-59
2020/12/04 07:54:23;;;;;;;;;68.00;52.60;;;;;14.32;33.48;97592.47;6160489;28;97349;-59
2020/12/04 07:57:37;;;;;;;;;69.40;53.40;;;;;13.50;34.77;97535.25;6160067;28;98245;-61
2020/12/04 08:00:38;;;;;;;;;69.25;52.00;;;;;13.33;35.65;97593.22;6162578;28;96612;-59
2020/12/04 08:03:39;;;;;;;;;70.00;52.20;;;;;13.00;36.18;97585.56;6162294;28;97403;-59
2020/12/04 08:06:41;;;;;;;;;67.00;51.00;;;;;12.77;37.00;97580.66;6162411;28;97456;-58
2020/12/04 08:09:46;;;;;;;;;67.00;52.00;;;;;12.39;38.22;97581.91;6152660;28;97242;-59
2020/12/04 08:12:49;;;;;;;;;66.60;52.00;;;;;12.20;38.88;97583.47;6138397;28;97463;-60
2020/12/04 08:15:51;;;;;;;;;64.00;49.00;;;;;12.53;38.79;97561.41;6144148;28;98595;-60
2020/12/04 08:18:52;;;;;;;;;62.50;49.00;;;;;12.49;38.80;97582.78;6158767;28;97130;-59
2020/12/04 08:22:01;;;;;;;;;62.50;48.00;;;;;12.61;38.83;97579.81;6161065;28;97457;-60
2020/12/04 08:25:06;;;;;;;;;60.00;47.00;;;;;12.61;38.81;97593.34;6151108;28;96931;-60
2020/12/04 08:28:08;;;;;;;;;57.80;46.00;;;;;12.51;39.38;97577.91;6160917;28;97746;-60
2020/12/04 08:31:21;;;;;;;;;57.00;44.00;;;;;12.43;39.48;97575.72;6153407;28;97464;-60
2020/12/04 08:34:23;;;;;;;;;56.60;44.00;;;;;12.30;39.86;97578.09;6140158;28;97491;-60
2020/12/04 08:37:27;;;;;;;;;57.00;45.00;;;;;12.31;40.21;97577.84;6146364;28;97119;-60
2020/12/04 08:40:32;;;;;;;;;55.75;44.00;;;;;12.25;40.65;97565.38;6159895;28;97175;-60
2020/12/04 08:43:40;;;;;;;;;50.00;40.00;;;;;12.17;40.64;97554.28;6154094;28;96688;-59
2020/12/04 08:46:41;;;;;;;;;49.40;39.00;;;;;12.16;40.80;97572.38;6137270;28;97213;-59
2020/12/04 08:49:49;;;;;;;;;45.20;37.00;;;;;12.15;40.90;97585.06;6144508;28;97269;-60
2020/12/04 08:52:55;;;;;;;;;46.00;37.00;;;;;12.01;40.80;97556.09;6145474;28;97105;-60
2020/12/04 08:55:58;;;;;;;;;46.80;37.20;;;;;12.10;41.08;97585.03;6149546;28;97179;-59
2020/12/04 08:58:59;;;;;;;;;45.40;35.40;;;;;11.86;41.17;97534.41;6157061;28;96725;-60
2020/12/04 09:02:01;;;;;;;;;43.60;34.40;;;;;12.16;41.15;97588.59;6143589;28;97306;-61
2020/12/04 09:05:04;;;;;;;;;40.50;35.00;;;;;12.24;41.05;97593.47;6135541;28;97529;-61
2020/12/04 09:08:06;;;;;;;;;42.00;35.00;;;;;12.29;41.04;97569.19;6155010;28;98083;-61
2020/12/04 09:11:08;;;;;;;;;44.00;35.00;;;;;12.36;41.22;97583.28;6160034;28;97229;-60
2020/12/04 09:14:09;;;;;;;;;46.20;37.80;;;;;12.43;41.18;97553.28;6160062;28;97443;-59
2020/12/04 09:17:11;;;;;;;;;45.00;35.00;;;;;12.52;41.00;97566.00;6159615;28;98600;-60
2020/12/04 09:20:14;;;;;;;;;42.00;34.60;;;;;12.58;40.96;97558.72;6141828;28;97184;-60
2020/12/04 09:23:17;;;;;;;;;45.00;36.00;;;;;12.42;41.14;97530.84;6135260;28;97258;-60
2020/12/04 09:26:19;;;;;;;;;48.60;38.00;;;;;12.75;41.22;97547.69;6135169;28;96707;-58
2020/12/04 09:29:21;;;;;;;;;45.60;37.20;;;;;12.83;41.02;97558.78;6135548;28;97562;-60
2020/12/04 09:32:23;;;;;;;;;48.00;39.00;;;;;12.81;41.10;97555.53;6136181;28;96488;-60
2020/12/04 09:35:24;;;;;;;;;49.50;39.50;;;;;12.86;41.03;97558.25;6135583;28;98159;-60
2020/12/04 09:38:26;;;;;;;;;47.00;38.60;;;;;12.90;41.33;97563.94;6137132;28;98157;-60
2020/12/04 09:41:27;;;;;;;;;46.60;37.60;;;;;12.83;41.16;97522.81;6159004;28;97161;-60
2020/12/04 09:44:28;;;;;;;;;47.60;39.00;;;;;13.17;40.94;97550.19;6151768;28;97304;-60
2020/12/04 09:47:31;;;;;;;;;47.00;38.00;;;;;13.28;41.43;97555.34;6157695;28;97207;-60
2020/12/04 09:50:33;;;;;;;;;51.20;41.00;;;;;13.33;40.79;97558.03;6160080;28;98515;-61
2020/12/04 09:53:34;;;;;;;;;46.40;39.00;;;;;13.39;40.74;97550.69;6159051;28;97149;-61
2020/12/04 09:56:36;;;;;;;;;49.00;40.00;;;;;13.48;40.79;97551.81;6141225;28;97089;-60
2020/12/04 09:59:38;;;;;;;;;49.00;39.00;;;;;13.59;40.85;97539.03;6134871;28;97161;-60
2020/12/04 10:02:41;;;;;;;;;48.60;40.00;;;;;13.77;40.83;97544.72;6135237;28;96903;-60
2020/12/04 10:05:42;;;;;;;;;51.60;42.00;;;;;13.88;40.54;97532.75;6147458;28;97027;-60
2020/12/04 10:08:44;;;;;;;;;50.40;39.20;;;;;14.09;40.48;97527.25;6152402;28;97106;-61
2020/12/04 10:11:47;;;;;;;;;49.00;39.00;;;;;14.98;39.78;97518.09;6136288;28;97243;-60
2020/12/04 10:14:48;;;;;;;;;47.20;37.20;;;;;16.32;37.70;97512.69;6135305;28;97456;-60
2020/12/04 10:17:49;;;;;;;;;49.00;39.00;;;;;16.64;36.78;97488.31;6148432;28;96704;-60
2020/12/04 10:20:51;;;;;;;;;45.40;38.20;;;;;17.52;35.11;97502.94;6159444;28;96749;-60
2020/12/04 10:23:55;;;;;;;;;45.00;36.00;;;;;17.71;34.67;97501.00;6137499;28;97639;-60
2020/12/04 10:26:58;;;;;;;;;41.40;35.40;;;;;18.14;34.21;97498.78;6134579;28;97191;-60
2020/12/04 10:29:59;;;;;;;;;45.00;36.00;;;;;19.54;32.57;97500.50;6133430;28;97464;-59
2020/12/04 10:33:00;;;;;;;;;37.60;31.40;;;;;20.10;31.57;97486.09;6147151;28;97511;-61
2020/12/04 10:36:03;;;;;;;;;29.00;26.80;;;;;20.14;31.27;97492.53;6141893;28;97512;-60
2020/12/04 10:39:07;;;;;;;;;23.00;22.00;;;;;19.67;31.54;97496.88;6137449;28;97747;-60
2020/12/04 10:42:08;;;;;;;;;23.25;21.50;;;;;20.46;31.13;97483.16;6158756;28;96733;-61
2020/12/04 10:45:10;;;;;;;;;19.60;16.00;;;;;20.91;30.29;97494.66;6137419;28;97548;-61
2020/12/04 10:48:12;;;;;;;;;16.00;15.00;;;;;21.09;29.87;97494.31;6135225;28;97040;-61
2020/12/04 10:51:13;;;;;;;;;15.60;14.00;;;;;21.50;29.25;97466.38;6143585;28;97434;-61
2020/12/04 10:54:14;;;;;;;;;10.20;10.20;;;;;21.66;28.51;97461.16;6152742;28;97440;-61
2020/12/04 10:57:16;;;;;;;;;14.00;12.00;;;;;21.81;28.77;97468.06;6139281;28;97502;-61
2020/12/04 11:00:18;;;;;;;;;13.00;12.00;;;;;22.12;28.56;97462.31;6138973;28;97640;-61
2020/12/04 11:06:22;;;;;;;;;11.00;9.00;;;;;21.81;28.83;97462.56;6155701;28;97551;-61
2020/12/04 11:09:23;;;;;;;;;11.00;10.00;;;;;22.18;27.70;97426.09;6158570;28;96735;-60
2020/12/04 11:12:25;;;;;;;;;10.50;10.00;;;;;22.87;26.99;97458.59;6152596;28;98496;-60
2020/12/04 11:15:26;;;;;;;;;10.00;10.00;;;;;22.24;27.60;97470.63;6169498;28;97637;-61
2020/12/04 11:18:28;;;;;;;;;11.00;10.00;;;;;22.12;27.82;97465.84;6158264;28;97440;-61
2020/12/04 11:21:29;;;;;;;;;9.00;9.00;;;;;22.33;27.43;97441.97;6175263;28;97510;-60
2020/12/04 11:24:31;;;;;;;;;11.80;11.00;;;;;22.44;26.85;97448.69;6169253;28;96617;-61
2020/12/04 11:27:32;;;;;;;;;9.00;9.00;;;;;22.79;27.13;97442.97;6162422;28;97063;-60
2020/12/04 11:30:33;;;;;;;;;8.40;8.40;;;;;22.74;27.13;97434.94;6152826;28;96869;-61
2020/12/04 11:33:35;;;;;;;;;11.00;10.00;;;;;23.57;25.75;97432.84;6163028;28;97440;-61
2020/12/04 11:36:36;;;;;;;;;10.00;9.00;;;;;23.99;25.77;97427.16;6163972;28;98609;-61
2020/12/04 11:39:41;;;;;;;;;9.20;8.00;;;;;23.84;25.33;97409.38;6171774;28;97762;-61
2020/12/04 11:42:44;;;;;;;;;10.00;9.00;;;;;23.25;25.95;97448.22;6168162;28;96940;-61
2020/12/04 11:45:45;;;;;;;;;9.40;8.00;;;;;22.22;27.20;97407.84;6173640;28;97195;-61
2020/12/04 11:48:48;;;;;;;;;10.00;9.00;;;;;21.02;28.60;97430.16;6157897;28;97920;-61
2020/12/04 11:51:49;;;;;;;;;9.80;9.80;;;;;20.96;28.98;97415.03;6150659;28;97509;-62
2020/12/04 11:54:51;;;;;;;;;10.00;9.00;;;;;19.72;30.86;97418.25;6151618;28;97074;-61
2020/12/04 11:57:52;;;;;;;;;8.60;8.60;;;;;18.82;32.13;97394.91;6172001;28;97464;-60
2020/12/04 12:00:53;;;;;;;;;11.00;10.00;;;;;18.26;33.08;97398.16;6166917;28;96914;-60
2020/12/04 12:03:55;;;;;;;;;8.50;8.50;;;;;18.09;33.66;97379.69;6161308;28;98635;-60
2020/12/04 12:06:56;;;;;;;;;8.00;8.00;;;;;17.55;34.45;97380.53;6174616;28;97776;-61
2020/12/04 12:09:57;;;;;;;;;10.40;10.00;;;;;17.21;35.18;97383.63;6152767;28;98459;-62
2020/12/04 12:12:59;;;;;;;;;13.00;11.40;;;;;17.21;35.23;97386.38;6145783;28;97664;-60
2020/12/04 12:16:05;;;;;;;;;12.60;11.00;;;;;17.24;35.11;97360.47;6146136;28;96678;-59
2020/12/04 12:19:07;;;;;;;;;10.00;10.00;;;;;17.90;34.47;97375.50;6153240;28;97268;-60
2020/12/04 12:22:10;;;;;;;;;10.00;10.00;;;;;18.56;33.50;97385.75;6154572;28;96688;-59
2020/12/04 12:25:12;;;;;;;;;12.20;11.60;;;;;18.79;33.09;97378.34;6148518;28;96705;-60
2020/12/04 12:28:13;;;;;;;;;11.00;11.00;;;;;19.57;31.62;97379.59;6159685;28;97622;-60
2020/12/04 12:31:16;;;;;;;;;10.40;10.40;;;;;20.30;30.90;97379.63;6158516;28;97144;-60
2020/12/04 12:34:17;;;;;;;;;9.80;9.80;;;;;19.96;30.90;97390.50;6148981;28;97239;-60
2020/12/04 12:37:19;;;;;;;;;12.00;11.00;;;;;20.48;30.34;97372.22;6168739;28;97444;-61
2020/12/04 12:40:20;;;;;;;;;12.00;11.00;;;;;20.46;30.76;97366.28;6155862;28;97714;-61
2020/12/04 12:43:22;;;;;;;;;11.40;10.40;;;;;20.07;31.18;97385.53;6166975;28;97313;-61
2020/12/04 12:46:23;;;;;;;;;12.00;11.00;;;;;20.00;31.45;97375.03;6160769;28;97093;-60
2020/12/04 12:49:25;;;;;;;;;13.00;12.00;;;;;20.41;30.63;97380.13;6172917;28;97516;-61
2020/12/04 12:52:26;;;;;;;;;12.40;11.40;;;;;20.54;30.62;97383.81;6165702;28;97154;-61
2020/12/04 12:55:29;;;;;;;;;12.00;11.00;;;;;20.26;30.53;97389.56;6160932;28;97450;-61
2020/12/04 12:58:30;;;;;;;;;11.20;10.20;;;;;20.48;30.59;97399.59;6153603;28;96925;-61
2020/12/04 13:01:32;;;;;;;;;11.60;11.00;;;;;19.63;31.37;97405.69;6172376;28;98948;-60
2020/12/04 13:04:33;;;;;;;;;10.00;9.00;;;;;19.77;31.53;97420.03;6164391;28;97404;-60
2020/12/04 13:07:34;;;;;;;;;11.00;11.00;;;;;19.83;31.56;97429.72;6173402;28;97070;-60
2020/12/04 13:10:37;;;;;;;;;11.00;9.00;;;;;19.93;31.14;97450.50;6173475;28;97476;-61
2020/12/04 13:13:39;;;;;;;;;10.40;9.00;;;;;19.83;31.37;97441.47;6170557;28;97442;-61
2020/12/04 13:16:45;;;;;;;;;8.80;8.60;;;;;19.53;31.38;97449.69;6174094;28;97054;-61
2020/12/04 13:19:46;;;;;;;;;15.00;14.00;;;;;20.08;31.11;97442.66;6156257;28;97603;-61
2020/12/04 13:26:36;;;;;;;;;11.00;10.00;;;;;19.05;32.20;97439.44;6150432;28;96726;-61
2020/12/04 13:29:29;;;;;;;;;9.20;8.20;;;;;18.64;33.13;97447.78;6161776;28;98460;-61
2020/12/04 13:32:31;;;;;;;;;11.00;10.00;;;;;18.51;33.34;97451.34;6170836;28;97517;-60
2020/12/04 13:35:34;;;;;;;;;11.80;11.20;;;;;18.27;33.93;97448.88;6170958;28;97755;-60
2020/12/04 13:38:36;;;;;;;;;12.00;11.50;;;;;18.05;34.41;97452.31;6164749;28;97623;-60
2020/12/04 13:41:37;;;;;;;;;12.50;11.50;;;;;17.70;35.10;97461.22;6162788;28;96747;-60
2020/12/04 13:44:39;;;;;;;;;11.00;10.20;;;;;17.60;35.13;97445.06;6177829;28;97552;-60
2020/12/04 13:47:41;;;;;;;;;11.60;11.00;;;;;17.29;35.71;97452.97;6178272;28;96617;-60
2020/12/04 13:50:42;;;;;;;;;13.00;12.00;;;;;17.20;36.05;97452.03;6159863;28;97152;-62
2020/12/04 13:53:45;;;;;;;;;12.40;12.00;;;;;17.36;35.82;97447.91;6149096;28;97255;-61
2020/12/04 13:56:46;;;;;;;;;15.00;14.00;;;;;17.21;36.27;97443.56;6152270;28;98516;-60
2020/12/04 13:59:48;;;;;;;;;15.00;13.00;;;;;16.75;36.81;97448.16;6154008;28;97257;-61
2020/12/04 14:02:49;;;;;;;;;13.25;13.00;;;;;16.86;36.83;97460.47;6138902;28;96791;-61
2020/12/04 14:05:52;;;;;;;;;11.40;11.40;;;;;16.69;36.97;97458.31;6141529;28;97512;-61
2020/12/04 14:08:53;;;;;;;;;10.40;10.00;;;;;16.59;37.06;97446.78;6142889;28;96901;-61
2020/12/04 14:11:55;;;;;;;;;13.40;11.00;;;;;16.34;37.57;97454.16;6141367;28;97378;-60